Main page
METAR-TAF:

METAR-TAF

Airports :

Jeddah, Saudi Arabia

King Abdulaziz International Airport

latitude: 21-42N, longitude: 039-11E, elevation: 15 m

Current weather observation

The report was made 1 hour and 1 minutes ago, at 03:00 UTC
Calm wind
Temperature 26°C
Humidity 70%
Pressure 1007 hPa
Visibility 10 km or more
no clouds below 1500 m and no cumulonimbus

METAR: OEJN 240300Z 00000KT CAVOK 26/20 Q1007 NOSIG

Time: 07:01 (04:01 UTC)

Forecast

The report was made 5 hours and 1 minutes ago, at 23:00 UTC
Forecast valid from 24 at 00 UTC to 25 at 06 UTC
Wind 3 kt from variable directions
Visibility: 7000 m
Few clouds at a height of 4000 ft
Scattered clouds at a height of 10000 ft
Becoming
from 24 at 06 UTC to 24 at 08 UTC
Wind 14 kt from the West
Visibility 10 km or more
Scattered clouds at a height of 4000 ft

TAF: OEJN 232300Z 2400/2506 VRB03KT 7000 FEW040 SCT100 BECMG 2406/2408 26014KT 9999 SCT040

Weather observations and forecasts of more than 4000 airports (METAR and TAF reports).

The available stations are represented by yellow and red dots on the map.

Hover mouse over dot to see the name of the station.

Then click to see weather observations and forecasts.

To change the map : click on the green buttons with a black cross to zoom in, on the green button with a dash to zoom out, or on the green arrows for adjacent maps.


METAR-TAF: